sensor_id;sensor_type;location;lat;lon;timestamp;P1;durP1;ratioP1;P2;durP2;ratioP2
20462;SDS011;10390;53.566;9.980;2023-04-01T00:00:05;5.72;;;4.45;;
20462;SDS011;10390;53.566;9.980;2023-04-01T00:02:31;5.97;;;4.90;;
20462;SDS011;10390;53.566;9.980;2023-04-01T00:04:57;7.28;;;4.72;;
20462;SDS011;10390;53.566;9.980;2023-04-01T00:07:22;5.88;;;4.65;;
20462;SDS011;10390;53.566;9.980;2023-04-01T00:09:48;7.10;;;4.90;;
20462;SDS011;10390;53.566;9.980;2023-04-01T00:12:14;5.80;;;5.10;;
20462;SDS011;10390;53.566;9.980;2023-04-01T00:14:39;7.70;;;5.32;;
20462;SDS011;10390;53.566;9.980;2023-04-01T00:17:05;6.07;;;5.28;;
20462;SDS011;10390;53.566;9.980;2023-04-01T00:19:31;7.63;;;5.03;;
20462;SDS011;10390;53.566;9.980;2023-04-01T00:21:57;7.00;;;4.93;;
20462;SDS011;10390;53.566;9.980;2023-04-01T00:24:23;5.70;;;4.82;;
20462;SDS011;10390;53.566;9.980;2023-04-01T00:26:49;6.45;;;5.20;;
20462;SDS011;10390;53.566;9.980;2023-04-01T00:29:15;6.72;;;5.22;;
20462;SDS011;10390;53.566;9.980;2023-04-01T00:31:41;6.50;;;5.13;;
20462;SDS011;10390;53.566;9.980;2023-04-01T00:34:06;7.20;;;5.32;;
20462;SDS011;10390;53.566;9.980;2023-04-01T00:36:32;6.97;;;5.38;;
20462;SDS011;10390;53.566;9.980;2023-04-01T00:38:58;5.53;;;5.00;;
20462;SDS011;10390;53.566;9.980;2023-04-01T00:41:26;6.43;;;5.22;;
20462;SDS011;10390;53.566;9.980;2023-04-01T00:44:11;7.68;;;5.35;;
20462;SDS011;10390;53.566;9.980;2023-04-01T00:46:46;8.13;;;5.20;;
20462;SDS011;10390;53.566;9.980;2023-04-01T00:49:12;6.53;;;5.80;;
20462;SDS011;10390;53.566;9.980;2023-04-01T00:51:39;6.53;;;5.22;;
20462;SDS011;10390;53.566;9.980;2023-04-01T00:54:07;7.32;;;4.97;;
20462;SDS011;10390;53.566;9.980;2023-04-01T00:56:38;7.15;;;5.25;;
20462;SDS011;10390;53.566;9.980;2023-04-01T00:59:10;8.52;;;5.35;;
20462;SDS011;10390;53.566;9.980;2023-04-01T01:01:39;6.05;;;5.07;;
20462;SDS011;10390;53.566;9.980;2023-04-01T01:04:05;5.70;;;4.93;;
20462;SDS011;10390;53.566;9.980;2023-04-01T01:06:52;6.07;;;4.80;;
20462;SDS011;10390;53.566;9.980;2023-04-01T01:12:30;6.35;;;4.93;;
20462;SDS011;10390;53.566;9.980;2023-04-01T01:31:20;5.28;;;4.78;;
20462;SDS011;10390;53.566;9.980;2023-04-01T01:36:50;5.75;;;4.50;;
20462;SDS011;10390;53.566;9.980;2023-04-01T01:39:21;5.20;;;4.63;;
20462;SDS011;10390;53.566;9.980;2023-04-01T01:41:55;5.55;;;5.00;;
20462;SDS011;10390;53.566;9.980;2023-04-01T01:44:25;6.03;;;4.55;;
20462;SDS011;10390;53.566;9.980;2023-04-01T01:46:55;6.63;;;4.80;;
20462;SDS011;10390;53.566;9.980;2023-04-01T01:49:21;5.18;;;4.68;;
20462;SDS011;10390;53.566;9.980;2023-04-01T01:51:48;5.45;;;4.90;;
20462;SDS011;10390;53.566;9.980;2023-04-01T01:54:15;5.30;;;4.80;;
20462;SDS011;10390;53.566;9.980;2023-04-01T01:56:42;6.85;;;5.18;;
20462;SDS011;10390;53.566;9.980;2023-04-01T01:59:12;6.10;;;4.97;;
20462;SDS011;10390;53.566;9.980;2023-04-01T02:01:41;5.10;;;4.60;;
20462;SDS011;10390;53.566;9.980;2023-04-01T02:04:10;5.78;;;4.80;;
20462;SDS011;10390;53.566;9.980;2023-04-01T02:06:38;5.25;;;4.50;;
20462;SDS011;10390;53.566;9.980;2023-04-01T02:09:09;7.05;;;4.68;;
20462;SDS011;10390;53.566;9.980;2023-04-01T02:11:49;6.03;;;5.03;;
20462;SDS011;10390;53.566;9.980;2023-04-01T02:14:19;5.60;;;4.50;;
20462;SDS011;10390;53.566;9.980;2023-04-01T02:16:49;5.35;;;4.40;;
20462;SDS011;10390;53.566;9.980;2023-04-01T02:19:20;4.70;;;4.20;;
20462;SDS011;10390;53.566;9.980;2023-04-01T02:21:51;4.72;;;4.10;;
20462;SDS011;10390;53.566;9.980;2023-04-01T02:24:21;5.35;;;4.45;;
20462;SDS011;10390;53.566;9.980;2023-04-01T02:26:50;5.20;;;4.70;;
20462;SDS011;10390;53.566;9.980;2023-04-01T02:29:18;5.00;;;4.18;;
20462;SDS011;10390;53.566;9.980;2023-04-01T02:31:46;5.38;;;4.43;;
20462;SDS011;10390;53.566;9.980;2023-04-01T02:34:12;5.00;;;4.50;;
20462;SDS011;10390;53.566;9.980;2023-04-01T02:36:39;4.70;;;4.20;;
20462;SDS011;10390;53.566;9.980;2023-04-01T02:39:05;4.78;;;4.28;;
20462;SDS011;10390;53.566;9.980;2023-04-01T02:41:31;5.28;;;4.78;;
20462;SDS011;10390;53.566;9.980;2023-04-01T02:44:03;4.78;;;4.28;;
20462;SDS011;10390;53.566;9.980;2023-04-01T02:46:28;4.80;;;4.30;;
20462;SDS011;10390;53.566;9.980;2023-04-01T02:48:54;4.90;;;4.40;;
20462;SDS011;10390;53.566;9.980;2023-04-01T02:51:20;4.60;;;4.03;;
20462;SDS011;10390;53.566;9.980;2023-04-01T02:53:45;5.93;;;4.32;;
20462;SDS011;10390;53.566;9.980;2023-04-01T02:56:11;4.82;;;4.32;;
20462;SDS011;10390;53.566;9.980;2023-04-01T02:58:36;5.00;;;4.38;;
20462;SDS011;10390;53.566;9.980;2023-04-01T03:01:02;4.70;;;4.25;;
20462;SDS011;10390;53.566;9.980;2023-04-01T03:03:27;5.15;;;4.65;;
20462;SDS011;10390;53.566;9.980;2023-04-01T03:05:53;5.43;;;4.32;;
20462;SDS011;10390;53.566;9.980;2023-04-01T03:08:21;4.93;;;4.22;;
20462;SDS011;10390;53.566;9.980;2023-04-01T03:10:46;5.05;;;4.40;;
20462;SDS011;10390;53.566;9.980;2023-04-01T03:13:12;4.70;;;4.20;;
20462;SDS011;10390;53.566;9.980;2023-04-01T03:15:38;5.10;;;4.60;;
20462;SDS011;10390;53.566;9.980;2023-04-01T03:18:03;4.97;;;4.40;;
20462;SDS011;10390;53.566;9.980;2023-04-01T03:20:29;4.68;;;4.18;;
20462;SDS011;10390;53.566;9.980;2023-04-01T03:22:55;4.43;;;3.92;;
20462;SDS011;10390;53.566;9.980;2023-04-01T03:25:20;4.88;;;4.38;;
20462;SDS011;10390;53.566;9.980;2023-04-01T03:27:46;7.40;;;4.63;;
20462;SDS011;10390;53.566;9.980;2023-04-01T03:30:12;6.47;;;4.70;;
20462;SDS011;10390;53.566;9.980;2023-04-01T03:32:37;5.03;;;4.38;;
20462;SDS011;10390;53.566;9.980;2023-04-01T03:35:03;7.35;;;4.50;;
20462;SDS011;10390;53.566;9.980;2023-04-01T03:37:29;4.80;;;4.32;;
20462;SDS011;10390;53.566;9.980;2023-04-01T03:39:55;4.32;;;3.90;;
20462;SDS011;10390;53.566;9.980;2023-04-01T03:42:21;5.10;;;4.35;;
20462;SDS011;10390;53.566;9.980;2023-04-01T03:44:46;6.25;;;4.15;;
20462;SDS011;10390;53.566;9.980;2023-04-01T03:47:12;4.40;;;3.78;;
20462;SDS011;10390;53.566;9.980;2023-04-01T03:49:37;4.70;;;4.20;;
20462;SDS011;10390;53.566;9.980;2023-04-01T03:52:03;5.28;;;3.97;;
20462;SDS011;10390;53.566;9.980;2023-04-01T03:54:29;4.28;;;3.88;;
20462;SDS011;10390;53.566;9.980;2023-04-01T03:56:54;4.70;;;4.22;;
20462;SDS011;10390;53.566;9.980;2023-04-01T03:59:22;5.10;;;4.00;;
20462;SDS011;10390;53.566;9.980;2023-04-01T04:01:48;4.53;;;4.10;;
20462;SDS011;10390;53.566;9.980;2023-04-01T04:04:13;5.50;;;4.05;;
20462;SDS011;10390;53.566;9.980;2023-04-01T04:06:39;4.80;;;3.90;;
20462;SDS011;10390;53.566;9.980;2023-04-01T04:09:05;6.47;;;4.00;;
20462;SDS011;10390;53.566;9.980;2023-04-01T04:11:31;4.75;;;3.80;;
20462;SDS011;10390;53.566;9.980;2023-04-01T04:13:57;4.60;;;4.03;;
20462;SDS011;10390;53.566;9.980;2023-04-01T04:16:23;4.95;;;4.30;;
20462;SDS011;10390;53.566;9.980;2023-04-01T04:18:49;5.22;;;4.22;;
20462;SDS011;10390;53.566;9.980;2023-04-01T04:21:16;4.53;;;4.13;;
20462;SDS011;10390;53.566;9.980;2023-04-01T04:23:43;4.78;;;4.28;;
20462;SDS011;10390;53.566;9.980;2023-04-01T04:26:13;4.28;;;3.88;;
20462;SDS011;10390;53.566;9.980;2023-04-01T04:28:39;4.85;;;4.10;;
20462;SDS011;10390;53.566;9.980;2023-04-01T04:31:05;5.45;;;4.28;;
20462;SDS011;10390;53.566;9.980;2023-04-01T04:33:31;4.72;;;4.20;;
20462;SDS011;10390;53.566;9.980;2023-04-01T04:35:58;4.68;;;4.20;;
20462;SDS011;10390;53.566;9.980;2023-04-01T04:38:24;5.13;;;4.30;;
20462;SDS011;10390;53.566;9.980;2023-04-01T04:40:50;5.80;;;4.45;;
20462;SDS011;10390;53.566;9.980;2023-04-01T04:43:17;4.75;;;3.92;;
20462;SDS011;10390;53.566;9.980;2023-04-01T04:45:43;4.65;;;4.25;;
20462;SDS011;10390;53.566;9.980;2023-04-01T04:48:09;4.60;;;4.10;;
20462;SDS011;10390;53.566;9.980;2023-04-01T04:50:39;5.03;;;4.05;;
20462;SDS011;10390;53.566;9.980;2023-04-01T04:53:05;4.40;;;3.80;;
20462;SDS011;10390;53.566;9.980;2023-04-01T04:55:31;4.40;;;4.00;;
20462;SDS011;10390;53.566;9.980;2023-04-01T04:57:56;4.50;;;3.60;;
20462;SDS011;10390;53.566;9.980;2023-04-01T05:00:22;4.28;;;3.88;;
20462;SDS011;10390;53.566;9.980;2023-04-01T05:02:48;4.60;;;4.10;;
20462;SDS011;10390;53.566;9.980;2023-04-01T05:05:13;5.05;;;4.03;;
20462;SDS011;10390;53.566;9.980;2023-04-01T05:07:39;5.13;;;4.03;;
20462;SDS011;10390;53.566;9.980;2023-04-01T05:10:05;4.50;;;4.10;;
20462;SDS011;10390;53.566;9.980;2023-04-01T05:12:30;4.35;;;3.75;;
20462;SDS011;10390;53.566;9.980;2023-04-01T05:15:01;6.20;;;4.22;;
20462;SDS011;10390;53.566;9.980;2023-04-01T05:17:27;4.43;;;4.03;;
20462;SDS011;10390;53.566;9.980;2023-04-01T05:19:53;4.80;;;4.30;;
20462;SDS011;10390;53.566;9.980;2023-04-01T05:22:19;5.68;;;4.43;;
20462;SDS011;10390;53.566;9.980;2023-04-01T05:24:45;5.35;;;4.28;;
20462;SDS011;10390;53.566;9.980;2023-04-01T05:27:10;4.93;;;4.43;;
20462;SDS011;10390;53.566;9.980;2023-04-01T05:29:36;4.80;;;4.30;;
20462;SDS011;10390;53.566;9.980;2023-04-01T05:32:01;4.93;;;4.47;;
20462;SDS011;10390;53.566;9.980;2023-04-01T05:34:27;4.55;;;3.90;;
20462;SDS011;10390;53.566;9.980;2023-04-01T05:36:52;6.47;;;4.20;;
20462;SDS011;10390;53.566;9.980;2023-04-01T05:39:18;5.40;;;3.97;;
20462;SDS011;10390;53.566;9.980;2023-04-01T05:41:44;6.80;;;4.28;;
20462;SDS011;10390;53.566;9.980;2023-04-01T05:44:10;4.60;;;4.10;;
20462;SDS011;10390;53.566;9.980;2023-04-01T05:46:37;5.72;;;3.78;;
20462;SDS011;10390;53.566;9.980;2023-04-01T05:49:02;4.70;;;4.20;;
20462;SDS011;10390;53.566;9.980;2023-04-01T05:51:28;6.05;;;4.10;;
20462;SDS011;10390;53.566;9.980;2023-04-01T05:53:54;4.88;;;4.35;;
20462;SDS011;10390;53.566;9.980;2023-04-01T05:56:19;5.53;;;4.10;;
20462;SDS011;10390;53.566;9.980;2023-04-01T05:58:46;5.57;;;4.43;;
20462;SDS011;10390;53.566;9.980;2023-04-01T06:01:17;6.43;;;4.40;;
20462;SDS011;10390;53.566;9.980;2023-04-01T06:03:43;10.13;;;4.30;;
20462;SDS011;10390;53.566;9.980;2023-04-01T06:06:12;9.18;;;4.10;;
20462;SDS011;10390;53.566;9.980;2023-04-01T06:08:52;9.10;;;3.92;;
20462;SDS011;10390;53.566;9.980;2023-04-01T06:14:28;7.95;;;4.53;;
20462;SDS011;10390;53.566;9.980;2023-04-01T06:22:49;8.68;;;4.32;;
20462;SDS011;10390;53.566;9.980;2023-04-01T06:30:33;6.13;;;4.57;;
20462;SDS011;10390;53.566;9.980;2023-04-01T06:36:14;10.38;;;4.88;;
20462;SDS011;10390;53.566;9.980;2023-04-01T06:44:33;13.85;;;5.20;;
20462;SDS011;10390;53.566;9.980;2023-04-01T06:49:55;12.63;;;5.53;;
20462;SDS011;10390;53.566;9.980;2023-04-01T06:52:50;7.15;;;4.88;;
20462;SDS011;10390;53.566;9.980;2023-04-01T06:55:52;7.13;;;5.65;;
20462;SDS011;10390;53.566;9.980;2023-04-01T07:01:14;9.60;;;4.57;;
20462;SDS011;10390;53.566;9.980;2023-04-01T07:03:59;7.38;;;4.68;;
20462;SDS011;10390;53.566;9.980;2023-04-01T07:07:04;8.02;;;4.45;;
20462;SDS011;10390;53.566;9.980;2023-04-01T07:09:40;8.07;;;4.28;;
20462;SDS011;10390;53.566;9.980;2023-04-01T07:12:12;7.50;;;4.57;;
20462;SDS011;10390;53.566;9.980;2023-04-01T07:14:46;8.45;;;4.53;;
20462;SDS011;10390;53.566;9.980;2023-04-01T07:17:15;6.55;;;4.53;;
20462;SDS011;10390;53.566;9.980;2023-04-01T07:22:39;7.90;;;4.90;;
20462;SDS011;10390;53.566;9.980;2023-04-01T07:25:29;9.13;;;4.38;;
20462;SDS011;10390;53.566;9.980;2023-04-01T07:28:13;8.23;;;4.82;;
20462;SDS011;10390;53.566;9.980;2023-04-01T07:30:45;10.80;;;4.70;;
20462;SDS011;10390;53.566;9.980;2023-04-01T07:33:19;10.48;;;4.40;;
20462;SDS011;10390;53.566;9.980;2023-04-01T07:36:03;9.60;;;4.72;;
20462;SDS011;10390;53.566;9.980;2023-04-01T07:41:19;8.38;;;4.78;;
20462;SDS011;10390;53.566;9.980;2023-04-01T07:43:54;10.85;;;5.00;;
20462;SDS011;10390;53.566;9.980;2023-04-01T07:46:39;11.38;;;4.78;;
20462;SDS011;10390;53.566;9.980;2023-04-01T07:51:42;21.92;;;6.55;;
20462;SDS011;10390;53.566;9.980;2023-04-01T07:57:02;13.68;;;5.55;;
20462;SDS011;10390;53.566;9.980;2023-04-01T08:00:17;14.98;;;5.80;;
20462;SDS011;10390;53.566;9.980;2023-04-01T08:10:54;16.80;;;6.28;;
20462;SDS011;10390;53.566;9.980;2023-04-01T08:22:02;13.43;;;5.38;;
20462;SDS011;10390;53.566;9.980;2023-04-01T08:24:42;15.00;;;5.50;;
20462;SDS011;10390;53.566;9.980;2023-04-01T08:32:55;17.50;;;6.68;;
20462;SDS011;10390;53.566;9.980;2023-04-01T08:38:38;14.05;;;6.55;;
20462;SDS011;10390;53.566;9.980;2023-04-01T08:52:35;11.25;;;6.68;;
20462;SDS011;10390;53.566;9.980;2023-04-01T09:00:56;17.30;;;5.70;;
20462;SDS011;10390;53.566;9.980;2023-04-01T09:09:05;11.52;;;5.65;;
20462;SDS011;10390;53.566;9.980;2023-04-01T09:14:53;13.52;;;6.05;;
20462;SDS011;10390;53.566;9.980;2023-04-01T09:20:25;12.20;;;6.25;;
20462;SDS011;10390;53.566;9.980;2023-04-01T09:39:22;14.18;;;6.03;;
20462;SDS011;10390;53.566;9.980;2023-04-01T09:50:40;7.50;;;4.80;;
20462;SDS011;10390;53.566;9.980;2023-04-01T09:53:44;13.15;;;5.68;;
20462;SDS011;10390;53.566;9.980;2023-04-01T10:05:04;10.38;;;5.60;;
20462;SDS011;10390;53.566;9.980;2023-04-01T10:07:45;10.82;;;5.70;;
20462;SDS011;10390;53.566;9.980;2023-04-01T10:39:12;9.57;;;5.13;;
20462;SDS011;10390;53.566;9.980;2023-04-01T10:53:37;12.60;;;5.82;;
20462;SDS011;10390;53.566;9.980;2023-04-01T11:07:30;10.38;;;5.03;;
20462;SDS011;10390;53.566;9.980;2023-04-01T11:21:45;8.80;;;4.75;;
20462;SDS011;10390;53.566;9.980;2023-04-01T11:30:22;8.88;;;5.13;;
20462;SDS011;10390;53.566;9.980;2023-04-01T11:33:07;7.53;;;4.53;;
20462;SDS011;10390;53.566;9.980;2023-04-01T11:41:22;8.95;;;5.32;;
20462;SDS011;10390;53.566;9.980;2023-04-01T11:44:17;8.50;;;5.40;;
20462;SDS011;10390;53.566;9.980;2023-04-01T11:54:56;8.85;;;4.93;;
20462;SDS011;10390;53.566;9.980;2023-04-01T12:00:52;8.43;;;4.15;;
20462;SDS011;10390;53.566;9.980;2023-04-01T12:19:44;10.25;;;4.80;;
20462;SDS011;10390;53.566;9.980;2023-04-01T12:22:23;7.78;;;5.10;;
20462;SDS011;10390;53.566;9.980;2023-04-01T12:36:28;10.65;;;5.22;;
20462;SDS011;10390;53.566;9.980;2023-04-01T12:39:35;8.68;;;5.05;;
20462;SDS011;10390;53.566;9.980;2023-04-01T12:48:12;6.28;;;4.88;;
20462;SDS011;10390;53.566;9.980;2023-04-01T13:10:02;6.00;;;5.30;;
20462;SDS011;10390;53.566;9.980;2023-04-01T13:34:33;9.38;;;4.85;;
20462;SDS011;10390;53.566;9.980;2023-04-01T13:40:04;10.57;;;4.53;;
20462;SDS011;10390;53.566;9.980;2023-04-01T13:43:43;7.47;;;4.32;;
20462;SDS011;10390;53.566;9.980;2023-04-01T13:48:44;7.60;;;4.75;;
20462;SDS011;10390;53.566;9.980;2023-04-01T13:51:37;9.45;;;5.57;;
20462;SDS011;10390;53.566;9.980;2023-04-01T14:03:00;9.43;;;5.13;;
20462;SDS011;10390;53.566;9.980;2023-04-01T14:14:02;9.40;;;5.32;;
20462;SDS011;10390;53.566;9.980;2023-04-01T14:16:55;9.65;;;4.88;;
20462;SDS011;10390;53.566;9.980;2023-04-01T14:19:38;8.05;;;5.05;;
20462;SDS011;10390;53.566;9.980;2023-04-01T14:27:59;9.68;;;5.70;;
20462;SDS011;10390;53.566;9.980;2023-04-01T14:41:35;11.00;;;5.00;;
20462;SDS011;10390;53.566;9.980;2023-04-01T14:49:43;12.32;;;4.63;;
20462;SDS011;10390;53.566;9.980;2023-04-01T14:52:30;10.95;;;5.65;;
20462;SDS011;10390;53.566;9.980;2023-04-01T14:55:01;9.50;;;5.00;;
20462;SDS011;10390;53.566;9.980;2023-04-01T14:57:44;9.75;;;5.07;;
20462;SDS011;10390;53.566;9.980;2023-04-01T15:00:24;7.28;;;5.25;;
20462;SDS011;10390;53.566;9.980;2023-04-01T15:02:57;8.98;;;5.47;;
20462;SDS011;10390;53.566;9.980;2023-04-01T15:05:49;9.52;;;5.13;;
20462;SDS011;10390;53.566;9.980;2023-04-01T15:21:18;8.15;;;5.40;;
20462;SDS011;10390;53.566;9.980;2023-04-01T15:29:22;8.75;;;5.30;;
20462;SDS011;10390;53.566;9.980;2023-04-01T15:32:17;7.70;;;4.70;;
20462;SDS011;10390;53.566;9.980;2023-04-01T15:37:29;8.13;;;4.63;;
20462;SDS011;10390;53.566;9.980;2023-04-01T15:48:33;7.65;;;5.10;;
20462;SDS011;10390;53.566;9.980;2023-04-01T15:57:04;7.95;;;4.68;;
20462;SDS011;10390;53.566;9.980;2023-04-01T16:06:01;8.55;;;6.22;;
20462;SDS011;10390;53.566;9.980;2023-04-01T16:11:31;11.15;;;5.15;;
20462;SDS011;10390;53.566;9.980;2023-04-01T16:20:24;8.70;;;5.43;;
20462;SDS011;10390;53.566;9.980;2023-04-01T16:23:18;8.13;;;5.28;;
20462;SDS011;10390;53.566;9.980;2023-04-01T16:28:34;8.40;;;5.18;;
20462;SDS011;10390;53.566;9.980;2023-04-01T16:33:58;20.35;;;6.03;;
20462;SDS011;10390;53.566;9.980;2023-04-01T16:36:32;20.05;;;6.63;;
20462;SDS011;10390;53.566;9.980;2023-04-01T16:44:31;19.33;;;6.32;;
20462;SDS011;10390;53.566;9.980;2023-04-01T16:47:20;22.08;;;6.55;;
20462;SDS011;10390;53.566;9.980;2023-04-01T16:49:53;13.57;;;5.60;;
20462;SDS011;10390;53.566;9.980;2023-04-01T17:02:01;21.85;;;7.47;;
20462;SDS011;10390;53.566;9.980;2023-04-01T17:04:12;20.83;;;6.60;;
20462;SDS011;10390;53.566;9.980;2023-04-01T17:07:20;18.35;;;6.05;;
20462;SDS011;10390;53.566;9.980;2023-04-01T17:15:52;14.93;;;6.30;;
20462;SDS011;10390;53.566;9.980;2023-04-01T17:32:37;34.28;;;12.73;;
20462;SDS011;10390;53.566;9.980;2023-04-01T17:49:02;37.00;;;14.18;;
20462;SDS011;10390;53.566;9.980;2023-04-01T17:51:42;40.10;;;14.07;;
20462;SDS011;10390;53.566;9.980;2023-04-01T17:54:24;38.00;;;14.52;;
20462;SDS011;10390;53.566;9.980;2023-04-01T17:57:22;44.03;;;13.77;;
20462;SDS011;10390;53.566;9.980;2023-04-01T18:19:37;25.88;;;10.23;;
20462;SDS011;10390;53.566;9.980;2023-04-01T18:22:36;28.27;;;10.70;;
20462;SDS011;10390;53.566;9.980;2023-04-01T18:31:21;31.40;;;11.10;;
20462;SDS011;10390;53.566;9.980;2023-04-01T18:48:32;30.42;;;10.38;;
20462;SDS011;10390;53.566;9.980;2023-04-01T18:51:13;28.88;;;9.27;;
20462;SDS011;10390;53.566;9.980;2023-04-01T18:53:49;30.73;;;10.32;;
20462;SDS011;10390;53.566;9.980;2023-04-01T18:56:29;22.95;;;9.25;;
20462;SDS011;10390;53.566;9.980;2023-04-01T18:59:04;26.83;;;9.43;;
20462;SDS011;10390;53.566;9.980;2023-04-01T19:02:08;27.10;;;9.90;;
20462;SDS011;10390;53.566;9.980;2023-04-01T19:05:23;21.23;;;9.02;;
20462;SDS011;10390;53.566;9.980;2023-04-01T19:10:16;20.60;;;8.63;;
20462;SDS011;10390;53.566;9.980;2023-04-01T19:12:59;20.67;;;8.10;;
20462;SDS011;10390;53.566;9.980;2023-04-01T19:18:35;20.50;;;8.50;;
20462;SDS011;10390;53.566;9.980;2023-04-01T19:21:18;19.90;;;8.35;;
20462;SDS011;10390;53.566;9.980;2023-04-01T19:34:53;18.00;;;7.88;;
20462;SDS011;10390;53.566;9.980;2023-04-01T19:37:32;20.27;;;8.57;;
20462;SDS011;10390;53.566;9.980;2023-04-01T19:50:39;16.80;;;7.88;;
20462;SDS011;10390;53.566;9.980;2023-04-01T19:56:21;15.20;;;7.30;;
20462;SDS011;10390;53.566;9.980;2023-04-01T20:04:29;17.40;;;8.80;;
20462;SDS011;10390;53.566;9.980;2023-04-01T20:09:42;22.88;;;9.30;;
20462;SDS011;10390;53.566;9.980;2023-04-01T20:14:56;16.73;;;8.35;;
20462;SDS011;10390;53.566;9.980;2023-04-01T20:22:24;14.57;;;7.03;;
20462;SDS011;10390;53.566;9.980;2023-04-01T20:24:54;14.02;;;7.13;;
20462;SDS011;10390;53.566;9.980;2023-04-01T20:27:25;14.48;;;7.35;;
20462;SDS011;10390;53.566;9.980;2023-04-01T20:30:01;13.93;;;6.97;;
20462;SDS011;10390;53.566;9.980;2023-04-01T20:35:37;15.43;;;7.38;;
20462;SDS011;10390;53.566;9.980;2023-04-01T20:38:48;16.30;;;8.00;;
20462;SDS011;10390;53.566;9.980;2023-04-01T20:47:24;14.23;;;7.63;;
20462;SDS011;10390;53.566;9.980;2023-04-01T20:52:55;10.65;;;6.47;;
20462;SDS011;10390;53.566;9.980;2023-04-01T20:58:14;12.32;;;7.15;;
20462;SDS011;10390;53.566;9.980;2023-04-01T21:01:20;13.43;;;7.20;;
20462;SDS011;10390;53.566;9.980;2023-04-01T21:06:34;14.48;;;7.57;;
20462;SDS011;10390;53.566;9.980;2023-04-01T21:11:51;14.55;;;7.72;;
20462;SDS011;10390;53.566;9.980;2023-04-01T21:16:59;11.35;;;7.03;;
20462;SDS011;10390;53.566;9.980;2023-04-01T21:28:11;10.60;;;7.13;;
20462;SDS011;10390;53.566;9.980;2023-04-01T21:38:48;13.18;;;7.18;;
20462;SDS011;10390;53.566;9.980;2023-04-01T21:44:45;11.38;;;7.22;;
20462;SDS011;10390;53.566;9.980;2023-04-01T21:52:50;10.95;;;6.38;;
20462;SDS011;10390;53.566;9.980;2023-04-01T22:06:41;10.48;;;6.57;;
20462;SDS011;10390;53.566;9.980;2023-04-01T22:09:34;11.60;;;6.30;;
20462;SDS011;10390;53.566;9.980;2023-04-01T22:12:11;11.15;;;6.88;;
20462;SDS011;10390;53.566;9.980;2023-04-01T22:15:21;9.93;;;6.97;;
20462;SDS011;10390;53.566;9.980;2023-04-01T22:23:13;9.75;;;6.20;;
20462;SDS011;10390;53.566;9.980;2023-04-01T22:31:47;9.63;;;6.50;;
20462;SDS011;10390;53.566;9.980;2023-04-01T22:37:00;9.82;;;5.95;;
20462;SDS011;10390;53.566;9.980;2023-04-01T22:42:45;9.75;;;6.57;;
20462;SDS011;10390;53.566;9.980;2023-04-01T22:50:35;8.18;;;6.07;;
20462;SDS011;10390;53.566;9.980;2023-04-01T22:55:59;8.45;;;6.68;;
20462;SDS011;10390;53.566;9.980;2023-04-01T22:58:32;10.52;;;6.40;;
20462;SDS011;10390;53.566;9.980;2023-04-01T23:01:07;7.97;;;5.93;;
20462;SDS011;10390;53.566;9.980;2023-04-01T23:03:40;9.20;;;6.63;;
20462;SDS011;10390;53.566;9.980;2023-04-01T23:06:13;11.32;;;6.05;;
20462;SDS011;10390;53.566;9.980;2023-04-01T23:08:53;9.45;;;6.22;;
20462;SDS011;10390;53.566;9.980;2023-04-01T23:11:46;7.28;;;5.35;;
20462;SDS011;10390;53.566;9.980;2023-04-01T23:25:24;9.93;;;6.50;;
20462;SDS011;10390;53.566;9.980;2023-04-01T23:33:13;7.65;;;6.10;;
20462;SDS011;10390;53.566;9.980;2023-04-01T23:35:57;7.82;;;6.38;;
20462;SDS011;10390;53.566;9.980;2023-04-01T23:38:38;10.23;;;6.20;;
20462;SDS011;10390;53.566;9.980;2023-04-01T23:41:09;6.95;;;5.97;;
20462;SDS011;10390;53.566;9.980;2023-04-01T23:43:45;9.48;;;6.13;;
20462;SDS011;10390;53.566;9.980;2023-04-01T23:46:17;11.25;;;6.22;;
20462;SDS011;10390;53.566;9.980;2023-04-01T23:48:44;8.60;;;6.10;;
20462;SDS011;10390;53.566;9.980;2023-04-01T23:51:18;8.57;;;5.82;;
20462;SDS011;10390;53.566;9.980;2023-04-01T23:53:47;7.53;;;5.70;;
20462;SDS011;10390;53.566;9.980;2023-04-01T23:56:21;7.47;;;5.93;;
20462;SDS011;10390;53.566;9.980;2023-04-01T23:58:50;6.93;;;5.80;;
